Wah Cantt Weather



Wah Cantt's Current Weather

Temprature 24.25o clear sky

clear sky

Rain: 0 %

Min Temprature24.25o
Max Temprature24.25o
Humidity41
Wind Speed5.59 m/h
Sun Rise05:02:59
Sun Set19:09:08
Current Time: 24-May-2022 08:23:29
Lat/Lon: 33.7875, 72.7265




Wah Cantt's Geo Location



Wah Cantt's Weather Forecast

Time Overall Temp Min Temp Max Temp Humidity Wind Speed Rain
24-May-2022 (Tue)
11:00:00 clear sky 26.220 26.220 30.170 36 4.08 m/h 0 %
14:00:00 clear sky 30.160 30.160 33.110 27 3.36 m/h 0 %
17:00:00 clear sky 33.360 33.360 33.360 18 1.96 m/h 0 %
20:00:00 clear sky 28.430 28.430 28.430 25 0.79 m/h 0 %
23:00:00 clear sky 25.970 25.970 25.970 30 0.78 m/h 0 %
25-May-2022 (Wed)
02:00:00 clear sky 24.450 24.450 24.450 33 1.78 m/h 0 %
05:00:00 clear sky 23.720 23.720 23.720 34 2.52 m/h 0 %
08:00:00 clear sky 29.890 29.890 29.890 24 1.06 m/h 0 %
11:00:00 clear sky 34.780 34.780 34.780 18 3.09 m/h 0 %
14:00:00 clear sky 37.310 37.310 37.310 15 3.59 m/h 0 %
17:00:00 clear sky 37.360 37.360 37.360 13 1.74 m/h 0 %
20:00:00 clear sky 31.500 31.500 31.500 19 1.55 m/h 0 %
23:00:00 clear sky 29.400 29.400 29.400 22 0.82 m/h 0 %
26-May-2022 (Thu)
02:00:00 clear sky 27.610 27.610 27.610 25 1.77 m/h 0 %
05:00:00 clear sky 26.480 26.480 26.480 27 2.63 m/h 0 %
08:00:00 clear sky 32.720 32.720 32.720 19 1.16 m/h 0 %
11:00:00 clear sky 37.780 37.780 37.780 14 2.61 m/h 0 %
14:00:00 clear sky 40.780 40.780 40.780 11 3.47 m/h 0 %
17:00:00 clear sky 40.690 40.690 40.690 8 0.88 m/h 0 %
20:00:00 clear sky 34.200 34.200 34.200 13 1.57 m/h 0 %
23:00:00 clear sky 31.340 31.340 31.340 16 1.62 m/h 0 %
27-May-2022 (Fri)
02:00:00 clear sky 29.860 29.860 29.860 19 3.43 m/h 0 %
05:00:00 clear sky 28.180 28.180 28.180 22 2.44 m/h 0 %
08:00:00 clear sky 34.540 34.540 34.540 16 0.5 m/h 0 %
11:00:00 clear sky 40.500 40.500 40.500 11 2.31 m/h 0 %
14:00:00 clear sky 42.920 42.920 42.920 9 2.59 m/h 0 %
17:00:00 clear sky 43.300 43.300 43.300 8 2.94 m/h 0 %
20:00:00 clear sky 36.420 36.420 36.420 12 1.5 m/h 0 %
23:00:00 clear sky 33.730 33.730 33.730 14 3.31 m/h 0 %
28-May-2022 (Sat)
02:00:00 clear sky 31.060 31.060 31.060 17 2.47 m/h 0 %
05:00:00 scattered clouds 28.920 28.920 28.920 21 2.61 m/h 0 %
08:00:00 clear sky 33.460 33.460 33.460 18 3.97 m/h 0 %
11:00:00 clear sky 40.440 40.440 40.440 12 3.6 m/h 0 %
14:00:00 clear sky 43.470 43.470 43.470 9 3.38 m/h 0 %
17:00:00 few clouds 36.630 36.630 36.630 19 10.23 m/h 0 %
20:00:00 overcast clouds 34.200 34.200 34.200 23 4.85 m/h 0 %
23:00:00 broken clouds 29.930 29.930 29.930 32 3.86 m/h 0 %
29-May-2022 (Sun)
02:00:00 overcast clouds 27.880 27.880 27.880 34 2.18 m/h 0 %
05:00:00 broken clouds 26.390 26.390 26.390 35 1.89 m/h 0 %
08:00:00 light rain 32.450 32.450 32.450 25 3.31 m/h 11 %

Famous Cities (61)